Pelotas, Pelotas International Airport (SBPK)

NamePelotas International Airport
CityPelotas
CountryBrazil
ICAOSBPK
IATAPET
Altitude18 m
CoordinatesGoogle Map
Live Air TrafficLiveATC.net
METARSBPK 251700Z 26007KT CAVOK 33/12 Q1014
2020-04-25 17:00:00 Wind: West-Southwest (260°) 3.6 m/s - Visibility: > 10000 m - Weather: CAVOK - Temperature: 33 °C - Dew point: 12 °C - Humidity: 27.7% - Pressure: 1014 hPa
Statistics

The table below shows the detailed information of all flights to/from Pelotas, Pelotas International Airport (SBPK).